sensor_id;sensor_type;location;lat;lon;timestamp;P1;durP1;ratioP1;P2;durP2;ratioP2
15697;SDS011;7949;48.726;9.102;2022-09-09T16:06:55;4.60;;;0.70;;
15697;SDS011;7949;48.726;9.102;2022-09-09T16:09:24;4.60;;;0.43;;
15697;SDS011;7949;48.726;9.102;2022-09-09T16:11:52;2.07;;;0.60;;
15697;SDS011;7949;48.726;9.102;2022-09-09T16:14:21;1.80;;;0.47;;
15697;SDS011;7949;48.726;9.102;2022-09-09T16:16:49;3.83;;;0.70;;
15697;SDS011;7949;48.726;9.102;2022-09-09T16:19:17;2.50;;;0.60;;
15697;SDS011;7949;48.726;9.102;2022-09-09T16:21:44;2.90;;;0.60;;
15697;SDS011;7949;48.726;9.102;2022-09-09T17:05:46;0.93;;;0.67;;
15697;SDS011;7949;48.726;9.102;2022-09-09T17:08:12;0.87;;;0.30;;
15697;SDS011;7949;48.726;9.102;2022-09-09T17:10:40;0.67;;;0.30;;
15697;SDS011;7949;48.726;9.102;2022-09-09T17:13:07;0.90;;;0.40;;
15697;SDS011;7949;48.726;9.102;2022-09-09T17:15:38;1.50;;;0.40;;
15697;SDS011;7949;48.726;9.102;2022-09-09T17:18:07;0.43;;;0.20;;
15697;SDS011;7949;48.726;9.102;2022-09-09T17:20:35;1.20;;;0.20;;
15697;SDS011;7949;48.726;9.102;2022-09-09T17:23:03;0.70;;;0.20;;
15697;SDS011;7949;48.726;9.102;2022-09-09T17:25:30;1.23;;;0.40;;
15697;SDS011;7949;48.726;9.102;2022-09-09T17:27:57;1.37;;;0.30;;
15697;SDS011;7949;48.726;9.102;2022-09-09T17:30:24;1.43;;;0.33;;
15697;SDS011;7949;48.726;9.102;2022-09-09T17:32:52;1.03;;;0.40;;
15697;SDS011;7949;48.726;9.102;2022-09-09T17:35:19;0.77;;;0.30;;
15697;SDS011;7949;48.726;9.102;2022-09-09T17:37:46;1.03;;;0.40;;
15697;SDS011;7949;48.726;9.102;2022-09-09T17:40:14;1.67;;;0.40;;
15697;SDS011;7949;48.726;9.102;2022-09-09T17:42:41;3.20;;;0.50;;
15697;SDS011;7949;48.726;9.102;2022-09-09T17:45:08;1.63;;;0.33;;
15697;SDS011;7949;48.726;9.102;2022-09-09T17:47:36;1.23;;;0.47;;
15697;SDS011;7949;48.726;9.102;2022-09-09T17:50:06;3.13;;;0.50;;
15697;SDS011;7949;48.726;9.102;2022-09-09T17:52:36;1.30;;;0.23;;
15697;SDS011;7949;48.726;9.102;2022-09-09T17:55:03;0.93;;;0.40;;
15697;SDS011;7949;48.726;9.102;2022-09-09T17:57:34;2.63;;;0.60;;
15697;SDS011;7949;48.726;9.102;2022-09-09T18:00:07;0.43;;;0.33;;
15697;SDS011;7949;48.726;9.102;2022-09-09T18:02:35;1.30;;;0.43;;
15697;SDS011;7949;48.726;9.102;2022-09-09T18:05:03;3.17;;;0.93;;
15697;SDS011;7949;48.726;9.102;2022-09-09T18:07:30;2.87;;;0.80;;
15697;SDS011;7949;48.726;9.102;2022-09-09T18:09:58;3.23;;;0.83;;
15697;SDS011;7949;48.726;9.102;2022-09-09T18:12:25;2.37;;;0.80;;
15697;SDS011;7949;48.726;9.102;2022-09-09T18:14:54;3.57;;;0.70;;
15697;SDS011;7949;48.726;9.102;2022-09-09T18:17:21;2.33;;;0.80;;
15697;SDS011;7949;48.726;9.102;2022-09-09T18:19:48;4.33;;;0.83;;
15697;SDS011;7949;48.726;9.102;2022-09-09T18:22:15;3.07;;;0.87;;
15697;SDS011;7949;48.726;9.102;2022-09-09T18:24:43;2.60;;;0.67;;
15697;SDS011;7949;48.726;9.102;2022-09-09T18:27:12;1.80;;;0.60;;
15697;SDS011;7949;48.726;9.102;2022-09-09T18:29:40;2.17;;;0.70;;
15697;SDS011;7949;48.726;9.102;2022-09-09T18:32:08;2.40;;;0.60;;
15697;SDS011;7949;48.726;9.102;2022-09-09T18:34:36;1.13;;;0.50;;
15697;SDS011;7949;48.726;9.102;2022-09-09T18:37:03;1.80;;;0.50;;
15697;SDS011;7949;48.726;9.102;2022-09-09T18:39:31;1.20;;;0.63;;
15697;SDS011;7949;48.726;9.102;2022-09-09T18:41:59;3.93;;;0.60;;
15697;SDS011;7949;48.726;9.102;2022-09-09T18:44:27;4.50;;;1.63;;
15697;SDS011;7949;48.726;9.102;2022-09-09T18:46:56;2.77;;;0.93;;
15697;SDS011;7949;48.726;9.102;2022-09-09T18:49:25;2.60;;;0.80;;
15697;SDS011;7949;48.726;9.102;2022-09-09T18:51:52;2.40;;;0.80;;
15697;SDS011;7949;48.726;9.102;2022-09-09T18:54:21;2.07;;;0.83;;
15697;SDS011;7949;48.726;9.102;2022-09-09T18:56:51;2.07;;;0.80;;
15697;SDS011;7949;48.726;9.102;2022-09-09T18:59:19;3.43;;;0.73;;
15697;SDS011;7949;48.726;9.102;2022-09-09T19:01:48;4.77;;;0.70;;
15697;SDS011;7949;48.726;9.102;2022-09-09T19:04:16;2.37;;;0.80;;
15697;SDS011;7949;48.726;9.102;2022-09-09T19:06:47;3.37;;;0.80;;
15697;SDS011;7949;48.726;9.102;2022-09-09T19:09:21;4.23;;;0.80;;
15697;SDS011;7949;48.726;9.102;2022-09-09T19:11:50;3.80;;;0.80;;
